createdAt,value
2019-02-15T00:00:07.227Z,0.60
2019-02-15T00:02:35.846Z,0.60
2019-02-15T00:05:04.607Z,0.57
2019-02-15T00:07:33.188Z,0.40
2019-02-15T00:10:01.772Z,0.50
2019-02-15T00:12:30.367Z,1.17
2019-02-15T00:14:58.957Z,0.60
2019-02-15T00:17:45.040Z,0.50
2019-02-15T00:20:19.198Z,0.50
2019-02-15T00:22:48.054Z,0.50
2019-02-15T00:25:16.681Z,0.80
2019-02-15T00:27:45.305Z,0.40
2019-02-15T00:30:13.892Z,0.70
2019-02-15T00:32:42.466Z,0.60
2019-02-15T00:35:11.134Z,0.57
2019-02-15T00:37:39.716Z,0.60
2019-02-15T00:40:08.443Z,0.70
2019-02-15T00:42:37.054Z,0.60
2019-02-15T00:45:05.837Z,0.90
2019-02-15T00:47:47.650Z,0.50
2019-02-15T00:50:39.618Z,0.75
2019-02-15T00:53:45.314Z,0.53
2019-02-15T00:56:34.866Z,0.80
2019-02-15T00:59:11.031Z,0.70
2019-02-15T01:01:58.639Z,0.60
2019-02-15T01:04:53.273Z,0.50
2019-02-15T01:07:46.763Z,0.60
2019-02-15T01:10:21.634Z,0.60
2019-02-15T01:12:58.587Z,0.80
2019-02-15T01:15:27.280Z,0.57
2019-02-15T01:17:55.863Z,0.80
2019-02-15T01:20:24.439Z,0.50
2019-02-15T01:22:53.051Z,0.60
2019-02-15T01:25:21.703Z,0.60
2019-02-15T01:28:04.452Z,0.70
2019-02-15T01:30:55.154Z,0.50
2019-02-15T01:33:34.053Z,0.80
2019-02-15T01:36:34.001Z,0.80
2019-02-15T01:39:09.130Z,0.70
2019-02-15T01:41:57.627Z,0.50
2019-02-15T01:44:32.334Z,0.60
2019-02-15T01:47:14.182Z,0.50
2019-02-15T01:49:42.762Z,0.70
2019-02-15T01:52:11.627Z,0.50
2019-02-15T01:54:40.607Z,0.70
2019-02-15T01:57:09.219Z,0.60
2019-02-15T01:59:37.842Z,0.60
2019-02-15T02:02:06.433Z,0.50
2019-02-15T02:04:35.021Z,0.60
2019-02-15T02:07:03.682Z,0.50
2019-02-15T02:09:32.293Z,0.50
2019-02-15T02:12:00.891Z,0.42
2019-02-15T02:14:29.488Z,0.50
2019-02-15T02:16:58.074Z,0.60
2019-02-15T02:19:26.920Z,0.50
2019-02-15T02:21:55.652Z,0.75
2019-02-15T02:24:24.550Z,0.55
2019-02-15T02:26:53.519Z,0.50
2019-02-15T02:29:23.764Z,0.50
2019-02-15T02:31:52.837Z,0.50
2019-02-15T02:34:21.429Z,0.60
2019-02-15T02:36:53.941Z,0.40
2019-02-15T02:39:22.744Z,0.75
2019-02-15T02:41:51.338Z,0.47
2019-02-15T02:44:19.915Z,0.65
2019-02-15T02:46:48.542Z,0.60
2019-02-15T02:49:17.090Z,0.30
2019-02-15T02:51:45.925Z,0.90
2019-02-15T02:54:14.817Z,0.70
2019-02-15T02:56:43.460Z,0.50
2019-02-15T02:59:12.044Z,0.80
2019-02-15T03:01:40.663Z,0.40
2019-02-15T03:04:09.492Z,0.65
2019-02-15T03:06:38.313Z,0.53
2019-02-15T03:09:08.669Z,0.40
2019-02-15T03:11:37.562Z,0.60
2019-02-15T03:14:11.556Z,0.50
2019-02-15T03:16:36.756Z,0.50
2019-02-15T03:19:05.422Z,0.70
2019-02-15T03:21:34.003Z,0.65
2019-02-15T03:24:02.826Z,0.70
2019-02-15T03:26:31.643Z,0.65
2019-02-15T03:29:00.478Z,0.70
2019-02-15T03:31:29.287Z,0.90
2019-02-15T03:33:57.872Z,0.40
2019-02-15T03:36:54.660Z,0.45
2019-02-15T03:39:38.195Z,0.50
2019-02-15T03:42:07.646Z,0.55
2019-02-15T03:44:36.240Z,0.82
2019-02-15T03:47:05.042Z,0.70
2019-02-15T03:49:33.641Z,0.70
2019-02-15T03:52:02.233Z,0.70
2019-02-15T03:54:30.997Z,0.50
2019-02-15T03:56:59.675Z,0.60
2019-02-15T03:59:28.323Z,0.53
2019-02-15T04:01:56.906Z,0.70
2019-02-15T04:04:25.485Z,0.80
2019-02-15T04:06:54.103Z,0.70
2019-02-15T04:09:22.628Z,0.50
2019-02-15T04:11:51.252Z,0.68
2019-02-15T04:14:19.820Z,0.55
2019-02-15T04:16:48.392Z,0.75
2019-02-15T04:19:16.982Z,0.75
2019-02-15T04:21:45.814Z,0.60
2019-02-15T04:24:14.438Z,0.50
2019-02-15T04:26:43.008Z,0.57
2019-02-15T04:29:11.602Z,0.62
2019-02-15T04:31:40.191Z,0.75
2019-02-15T04:34:08.756Z,0.50
2019-02-15T04:36:37.354Z,0.55
2019-02-15T04:39:06.031Z,0.60
2019-02-15T04:41:34.598Z,0.50
2019-02-15T04:44:03.221Z,0.50
2019-02-15T04:46:31.778Z,0.90
2019-02-15T04:49:00.381Z,0.90
2019-02-15T04:51:28.979Z,0.60
2019-02-15T04:53:59.239Z,0.60
2019-02-15T04:56:29.498Z,0.60
2019-02-15T04:58:58.112Z,1.20
2019-02-15T05:01:26.945Z,0.60
2019-02-15T05:03:55.571Z,0.72
2019-02-15T05:06:24.142Z,0.70
2019-02-15T05:08:52.751Z,0.50
2019-02-15T05:11:21.351Z,2.05
2019-02-15T05:13:49.961Z,0.50
2019-02-15T05:16:18.574Z,0.93
2019-02-15T05:18:47.153Z,1.07
2019-02-15T05:21:15.758Z,0.70
2019-02-15T05:23:44.347Z,0.78
2019-02-15T05:26:12.913Z,0.80
2019-02-15T05:28:41.496Z,0.70
2019-02-15T05:31:10.054Z,0.75
2019-02-15T05:33:38.653Z,0.57
2019-02-15T05:36:07.221Z,0.90
2019-02-15T05:38:35.853Z,0.68
2019-02-15T05:41:04.423Z,0.50
2019-02-15T05:43:33.052Z,0.70
2019-02-15T05:46:01.912Z,0.70
2019-02-15T05:48:30.520Z,0.50
2019-02-15T05:50:59.074Z,0.60
2019-02-15T05:53:27.673Z,0.90
2019-02-15T05:55:56.257Z,1.05
2019-02-15T05:58:24.841Z,0.40
2019-02-15T06:00:53.465Z,0.53
2019-02-15T06:03:22.064Z,0.60
2019-02-15T06:05:50.639Z,0.70
2019-02-15T06:08:19.478Z,0.65
2019-02-15T06:10:48.100Z,0.90
2019-02-15T06:13:16.645Z,0.78
2019-02-15T06:15:45.311Z,0.72
2019-02-15T06:18:13.882Z,0.70
2019-02-15T06:20:42.697Z,0.70
2019-02-15T06:23:11.291Z,0.60
2019-02-15T06:25:39.921Z,0.80
2019-02-15T06:28:10.464Z,0.78
2019-02-15T06:30:38.825Z,1.00
2019-02-15T06:33:07.400Z,0.65
2019-02-15T06:35:35.984Z,0.55
2019-02-15T06:38:04.581Z,0.75
2019-02-15T06:40:33.231Z,0.80
2019-02-15T06:43:02.244Z,0.57
2019-02-15T06:45:31.002Z,0.50
2019-02-15T06:47:59.633Z,0.60
2019-02-15T06:50:28.259Z,0.82
2019-02-15T06:52:57.139Z,0.78
2019-02-15T06:55:25.725Z,0.60
2019-02-15T06:57:54.563Z,0.80
2019-02-15T07:00:48.095Z,0.82
2019-02-15T07:03:27.617Z,0.70
2019-02-15T07:05:56.204Z,0.80
2019-02-15T07:08:24.784Z,0.70
2019-02-15T07:10:53.841Z,1.10
2019-02-15T07:13:22.842Z,0.70
2019-02-15T07:15:51.931Z,0.80
2019-02-15T07:18:20.615Z,0.80
2019-02-15T07:20:49.863Z,0.70
2019-02-15T07:23:19.144Z,1.82
2019-02-15T07:25:48.557Z,1.27
2019-02-15T07:28:17.098Z,0.78
2019-02-15T07:30:45.933Z,0.60
2019-02-15T07:33:14.839Z,0.80
2019-02-15T07:35:43.893Z,0.80
2019-02-15T07:38:13.260Z,0.60
2019-02-15T07:40:41.864Z,0.60
2019-02-15T07:43:10.430Z,0.95
2019-02-15T07:45:42.859Z,0.70
2019-02-15T07:48:11.454Z,0.40
2019-02-15T07:50:40.089Z,0.62
2019-02-15T07:53:09.190Z,0.40
2019-02-15T07:55:37.752Z,0.60
2019-02-15T07:58:06.444Z,0.77
2019-02-15T08:00:35.110Z,0.80
2019-02-15T08:03:03.757Z,0.60
2019-02-15T08:05:32.459Z,0.80
2019-02-15T08:08:04.014Z,0.83
2019-02-15T08:10:32.606Z,0.90
2019-02-15T08:13:02.210Z,0.73
2019-02-15T08:15:36.168Z,0.93
2019-02-15T08:18:04.447Z,0.70
2019-02-15T08:20:33.569Z,0.63
2019-02-15T08:23:02.389Z,0.90
2019-02-15T08:25:30.978Z,0.70
2019-02-15T08:27:59.571Z,0.90
2019-02-15T08:30:28.441Z,0.80
2019-02-15T08:32:57.068Z,0.90
2019-02-15T08:35:25.628Z,0.90
2019-02-15T08:37:54.277Z,0.80
2019-02-15T08:40:23.064Z,1.30
2019-02-15T08:42:51.712Z,0.70
2019-02-15T08:45:20.294Z,0.70
2019-02-15T08:47:50.776Z,0.90
2019-02-15T08:50:19.615Z,1.67
2019-02-15T08:52:48.241Z,1.00
2019-02-15T08:55:17.110Z,0.73
2019-02-15T08:57:45.686Z,0.60
2019-02-15T09:00:14.358Z,0.70
2019-02-15T09:02:43.063Z,0.63
2019-02-15T09:05:11.898Z,0.60
2019-02-15T09:07:40.456Z,1.00
2019-02-15T09:10:10.521Z,1.10
2019-02-15T09:12:39.437Z,1.10
2019-02-15T09:15:14.121Z,0.70
2019-02-15T09:17:42.759Z,0.70
2019-02-15T09:20:12.382Z,1.10
2019-02-15T09:22:41.589Z,0.90
2019-02-15T09:25:10.825Z,0.80
2019-02-15T09:27:47.061Z,0.60
2019-02-15T09:30:17.845Z,0.90
2019-02-15T09:32:47.174Z,2.77
2019-02-15T09:35:16.064Z,1.57
2019-02-15T09:37:44.727Z,1.00
2019-02-15T09:40:13.688Z,1.00
2019-02-15T09:42:42.449Z,1.23
2019-02-15T09:45:11.820Z,0.87
2019-02-15T09:47:40.887Z,1.00
2019-02-15T09:50:10.347Z,0.77
2019-02-15T09:52:40.204Z,0.50
2019-02-15T09:55:09.694Z,1.00
2019-02-15T09:57:38.714Z,1.90
2019-02-15T10:00:07.751Z,0.87
2019-02-15T10:02:37.123Z,0.77
2019-02-15T10:05:06.179Z,0.90
2019-02-15T10:07:35.310Z,1.03
2019-02-15T10:10:04.728Z,0.80
2019-02-15T10:12:33.886Z,0.80
2019-02-15T10:15:03.866Z,0.60
2019-02-15T10:17:32.438Z,0.50
2019-02-15T10:20:01.424Z,0.70
2019-02-15T10:22:30.083Z,0.77
2019-02-15T10:24:58.724Z,0.90
2019-02-15T10:27:27.324Z,2.40
2019-02-15T10:29:55.899Z,1.40
2019-02-15T10:32:24.905Z,0.87
2019-02-15T10:34:53.669Z,0.77
2019-02-15T10:37:23.152Z,0.60
2019-02-15T10:39:55.837Z,0.63
2019-02-15T10:42:30.240Z,0.80
2019-02-15T10:45:01.435Z,0.50
2019-02-15T10:47:31.281Z,0.57
2019-02-15T10:50:01.234Z,0.70
2019-02-15T10:52:30.050Z,0.77
2019-02-15T10:54:59.404Z,0.80
2019-02-15T10:57:27.991Z,0.80
2019-02-15T10:59:56.598Z,0.50
2019-02-15T11:02:26.610Z,0.80
2019-02-15T11:04:55.266Z,0.67
2019-02-15T11:07:23.859Z,0.73
2019-02-15T11:09:52.718Z,0.50
2019-02-15T11:12:21.286Z,0.50
2019-02-15T11:14:50.123Z,0.50
2019-02-15T11:17:18.750Z,0.43
2019-02-15T11:19:47.344Z,0.53
2019-02-15T11:22:16.180Z,0.60
2019-02-15T11:24:44.752Z,0.70
2019-02-15T11:27:13.374Z,0.60
2019-02-15T11:29:45.051Z,0.60
2019-02-15T11:32:13.668Z,0.53
2019-02-15T11:34:42.248Z,0.60
2019-02-15T11:37:14.626Z,0.70
2019-02-15T11:39:43.347Z,1.00
2019-02-15T11:42:11.964Z,0.90
2019-02-15T11:44:40.536Z,0.67
2019-02-15T11:47:09.134Z,0.90
2019-02-15T11:49:37.713Z,0.80
2019-02-15T11:54:26.772Z,0.70
2019-02-15T11:56:55.737Z,0.87
2019-02-15T11:59:24.625Z,0.80
2019-02-15T12:01:53.256Z,0.90
2019-02-15T12:04:21.821Z,0.97
2019-02-15T12:06:50.451Z,0.60
2019-02-15T12:09:19.030Z,0.77
2019-02-15T12:11:47.885Z,0.67
2019-02-15T12:14:18.517Z,0.90
2019-02-15T12:16:47.067Z,0.50
2019-02-15T12:19:15.654Z,0.90
2019-02-15T12:21:44.234Z,0.70
2019-02-15T12:24:12.842Z,0.70
2019-02-15T12:26:41.720Z,1.00
2019-02-15T12:29:10.316Z,0.77
2019-02-15T12:31:38.925Z,0.70
2019-02-15T12:34:07.811Z,0.70
2019-02-15T12:36:36.384Z,1.07
2019-02-15T12:39:05.878Z,0.83
2019-02-15T12:41:34.737Z,2.60
2019-02-15T12:44:03.318Z,0.80
2019-02-15T12:46:32.167Z,0.60
2019-02-15T12:49:00.788Z,0.70
2019-02-15T12:51:29.865Z,5.30
2019-02-15T12:53:58.459Z,0.67
2019-02-15T12:56:29.340Z,3.10
2019-02-15T12:58:57.932Z,1.00
2019-02-15T13:01:26.540Z,0.60
2019-02-15T13:03:55.142Z,0.97
2019-02-15T13:06:28.652Z,0.80
2019-02-15T13:08:59.189Z,0.80
2019-02-15T13:11:27.760Z,0.50
2019-02-15T13:13:57.504Z,0.80
2019-02-15T13:16:26.832Z,0.57
2019-02-15T13:18:57.122Z,0.50
2019-02-15T13:21:29.036Z,1.10
2019-02-15T13:23:57.951Z,0.80
2019-02-15T13:26:27.572Z,0.60
2019-02-15T13:28:56.516Z,0.50
2019-02-15T13:31:25.641Z,0.40
2019-02-15T13:33:54.424Z,0.53
2019-02-15T13:36:23.079Z,0.60
2019-02-15T13:38:51.720Z,0.50
2019-02-15T13:41:22.105Z,0.50
2019-02-15T13:43:51.051Z,0.50
2019-02-15T13:46:22.969Z,0.53
2019-02-15T13:48:52.444Z,0.50
2019-02-15T13:51:21.314Z,0.53
2019-02-15T13:53:51.077Z,0.60
2019-02-15T13:56:22.094Z,0.70
2019-02-15T13:58:50.790Z,1.13
2019-02-15T14:01:19.353Z,0.57
2019-02-15T14:03:47.933Z,0.40
2019-02-15T14:06:16.637Z,0.60
2019-02-15T14:08:45.221Z,0.63
2019-02-15T14:11:13.842Z,0.50
2019-02-15T14:13:42.474Z,0.53
2019-02-15T14:16:11.235Z,0.60
2019-02-15T14:18:39.841Z,0.50
2019-02-15T14:21:08.460Z,0.67
2019-02-15T14:23:37.328Z,0.50
2019-02-15T14:26:06.197Z,0.67
2019-02-15T14:28:34.783Z,0.80
2019-02-15T14:31:03.396Z,0.90
2019-02-15T14:33:31.979Z,0.83
2019-02-15T14:36:00.569Z,1.00
2019-02-15T14:38:29.159Z,0.73
2019-02-15T14:40:57.767Z,1.00
2019-02-15T14:43:26.341Z,0.70
2019-02-15T14:45:54.966Z,0.90
2019-02-15T14:48:23.617Z,0.70
2019-02-15T14:50:52.255Z,0.60
2019-02-15T14:53:20.905Z,0.90
2019-02-15T14:55:51.534Z,1.00
2019-02-15T14:58:20.642Z,0.93
2019-02-15T15:00:49.244Z,0.77
2019-02-15T15:03:17.950Z,0.60
2019-02-15T15:05:46.587Z,0.60
2019-02-15T15:08:15.205Z,0.70
2019-02-15T15:10:43.872Z,0.70
2019-02-15T15:13:12.463Z,0.70
2019-02-15T15:15:41.075Z,0.87
2019-02-15T15:18:13.079Z,0.70
2019-02-15T15:20:40.284Z,1.00
2019-02-15T15:23:08.917Z,0.90
2019-02-15T15:25:37.513Z,1.57
2019-02-15T15:28:06.166Z,1.10
2019-02-15T15:30:35.061Z,0.90
2019-02-15T15:33:03.669Z,1.80
2019-02-15T15:35:32.249Z,1.40
2019-02-15T15:38:00.900Z,1.20
2019-02-15T15:40:29.475Z,1.20
2019-02-15T15:42:58.323Z,1.50
2019-02-15T15:45:26.924Z,1.67
2019-02-15T15:47:55.563Z,1.70
2019-02-15T15:50:24.140Z,2.23
2019-02-15T15:52:52.783Z,2.10
2019-02-15T15:55:21.390Z,2.27
2019-02-15T15:57:49.997Z,2.40
2019-02-15T16:00:18.577Z,1.93
2019-02-15T16:02:47.420Z,2.03
2019-02-15T16:05:16.030Z,2.13
2019-02-15T16:07:45.680Z,2.27
2019-02-15T16:10:14.284Z,2.63
2019-02-15T16:12:42.864Z,2.47
2019-02-15T16:15:11.665Z,2.47
2019-02-15T16:17:40.331Z,2.80
2019-02-15T16:20:09.444Z,2.03
2019-02-15T16:22:38.045Z,2.20
2019-02-15T16:25:06.855Z,1.90
2019-02-15T16:27:35.673Z,2.37
2019-02-15T16:30:04.636Z,2.20
2019-02-15T16:32:33.596Z,3.13
2019-02-15T16:35:02.229Z,2.70
2019-02-15T16:37:30.823Z,2.97
2019-02-15T16:39:59.411Z,2.90
2019-02-15T16:42:28.239Z,2.57
2019-02-15T16:44:56.863Z,2.57
2019-02-15T16:47:25.697Z,1.80
2019-02-15T16:49:54.283Z,1.80
2019-02-15T16:52:22.868Z,2.27
2019-02-15T16:54:51.471Z,3.07
2019-02-15T16:57:20.081Z,2.17
2019-02-15T16:59:48.928Z,2.00
2019-02-15T17:02:17.605Z,2.40
2019-02-15T17:04:46.186Z,2.50
2019-02-15T17:07:14.859Z,2.60
2019-02-15T17:09:43.481Z,4.13
2019-02-15T17:12:12.093Z,4.83
2019-02-15T17:14:40.673Z,4.70
2019-02-15T17:17:09.524Z,5.40
2019-02-15T17:19:38.120Z,4.90
2019-02-15T17:22:06.959Z,4.07
2019-02-15T17:24:35.595Z,3.10
2019-02-15T17:27:04.181Z,2.40
2019-02-15T17:29:33.026Z,1.70
2019-02-15T17:32:02.641Z,1.13
2019-02-15T17:34:31.469Z,3.40
2019-02-15T17:37:01.092Z,2.20
2019-02-15T17:39:29.671Z,3.40
2019-02-15T17:41:58.277Z,2.10
2019-02-15T17:44:27.102Z,1.90
2019-02-15T17:46:55.715Z,0.90
2019-02-15T17:49:24.297Z,0.90
2019-02-15T17:51:53.397Z,0.87
2019-02-15T17:54:22.105Z,1.00
2019-02-15T17:56:50.717Z,1.07
2019-02-15T17:59:19.381Z,0.80
2019-02-15T18:01:47.965Z,0.97
2019-02-15T18:04:16.550Z,1.07
2019-02-15T18:06:45.311Z,0.90
2019-02-15T18:09:13.907Z,0.90
2019-02-15T18:11:42.584Z,1.07
2019-02-15T18:14:11.173Z,1.10
2019-02-15T18:16:39.768Z,1.03
2019-02-15T18:19:10.252Z,1.50
2019-02-15T18:21:38.720Z,1.20
2019-02-15T18:24:07.325Z,1.03
2019-02-15T18:26:36.062Z,1.43
2019-02-15T18:29:04.951Z,1.20
2019-02-15T18:31:33.549Z,1.13
2019-02-15T18:34:02.138Z,1.10
2019-02-15T18:36:30.803Z,1.23
2019-02-15T18:38:59.628Z,1.10
2019-02-15T18:41:28.218Z,1.30
2019-02-15T18:43:56.818Z,1.60
2019-02-15T18:46:25.400Z,1.40
2019-02-15T18:48:54.009Z,1.10
2019-02-15T18:51:22.827Z,1.10
2019-02-15T18:53:51.449Z,1.40
2019-02-15T18:56:20.024Z,1.30
2019-02-15T18:58:48.640Z,1.03
2019-02-15T19:01:17.226Z,1.40
2019-02-15T19:03:45.815Z,1.43
2019-02-15T19:06:14.652Z,1.00
2019-02-15T19:08:43.272Z,1.20
2019-02-15T19:11:12.143Z,1.77
2019-02-15T19:13:40.979Z,1.17
2019-02-15T19:16:09.621Z,1.17
2019-02-15T19:18:38.284Z,1.30
2019-02-15T19:21:07.007Z,1.10
2019-02-15T19:23:35.586Z,1.57
2019-02-15T19:26:04.253Z,1.20
2019-02-15T19:28:32.874Z,1.40
2019-02-15T19:31:01.616Z,1.27
2019-02-15T19:33:30.185Z,1.60
2019-02-15T19:35:58.767Z,1.37
2019-02-15T19:38:27.591Z,1.30
2019-02-15T19:40:56.231Z,1.40
2019-02-15T19:43:25.058Z,1.50
2019-02-15T19:45:54.564Z,1.63
2019-02-15T19:48:23.191Z,2.00
2019-02-15T19:50:52.057Z,11.67
2019-02-15T19:53:20.696Z,7.60
2019-02-15T19:55:49.316Z,7.70
2019-02-15T19:58:17.902Z,6.80
2019-02-15T20:00:46.575Z,5.17
2019-02-15T20:03:15.177Z,3.67
2019-02-15T20:05:43.855Z,3.50
2019-02-15T20:08:12.510Z,3.00
2019-02-15T20:10:41.058Z,2.50
2019-02-15T20:13:09.704Z,1.90
2019-02-15T20:15:38.285Z,2.00
2019-02-15T20:18:08.110Z,2.20
2019-02-15T20:20:36.692Z,2.47
2019-02-15T20:23:05.362Z,2.13
2019-02-15T20:25:34.231Z,2.17
2019-02-15T20:28:03.043Z,2.13
2019-02-15T20:30:31.633Z,2.10
2019-02-15T20:33:00.630Z,1.83
2019-02-15T20:35:29.213Z,2.33
2019-02-15T20:37:57.874Z,2.33
2019-02-15T20:40:26.505Z,2.57
2019-02-15T20:42:55.123Z,2.33
2019-02-15T20:45:23.768Z,2.60
2019-02-15T20:47:52.386Z,2.67
2019-02-15T20:50:20.950Z,2.20
2019-02-15T20:52:49.804Z,2.50
2019-02-15T20:55:18.422Z,3.40
2019-02-15T20:57:48.166Z,2.70
2019-02-15T21:00:21.951Z,3.37
2019-02-15T21:02:50.616Z,2.50
2019-02-15T21:05:19.507Z,3.07
2019-02-15T21:07:48.201Z,2.90
2019-02-15T21:10:16.778Z,2.60
2019-02-15T21:12:45.464Z,2.73
2019-02-15T21:15:14.333Z,2.47
2019-02-15T21:17:42.905Z,3.50
2019-02-15T21:20:11.722Z,3.67
2019-02-15T21:22:40.335Z,3.97
2019-02-15T21:25:10.510Z,3.70
2019-02-15T21:27:39.078Z,3.37
2019-02-15T21:30:09.936Z,3.63
2019-02-15T21:32:38.555Z,3.87
2019-02-15T21:35:07.530Z,3.70
2019-02-15T21:37:36.109Z,3.60
2019-02-15T21:40:05.178Z,4.20
2019-02-15T21:42:33.766Z,4.60
2019-02-15T21:45:02.594Z,4.53
2019-02-15T21:47:31.354Z,3.37
2019-02-15T21:49:59.920Z,4.20
2019-02-15T21:52:28.645Z,4.20
2019-02-15T21:54:57.485Z,4.80
2019-02-15T21:57:26.391Z,3.97
2019-02-15T21:59:54.965Z,3.70
2019-02-15T22:02:23.588Z,4.70
2019-02-15T22:04:52.167Z,4.20
2019-02-15T22:07:20.795Z,4.37
2019-02-15T22:09:49.396Z,4.63
2019-02-15T22:12:18.992Z,5.27
2019-02-15T22:18:28.473Z,4.60
2019-02-15T22:20:57.200Z,4.47
2019-02-15T22:23:25.946Z,4.30
2019-02-15T22:25:54.564Z,4.30
2019-02-15T22:28:23.567Z,4.17
2019-02-15T22:30:52.199Z,4.00
2019-02-15T22:33:20.856Z,3.70
2019-02-15T22:35:49.486Z,4.13
2019-02-15T22:38:18.094Z,3.93
2019-02-15T22:40:47.534Z,4.70
2019-02-15T22:43:18.954Z,4.77
2019-02-15T22:45:47.764Z,3.77
2019-02-15T22:48:16.476Z,3.90
2019-02-15T22:50:45.457Z,3.77
2019-02-15T22:53:15.054Z,3.67
2019-02-15T22:55:43.668Z,3.60
2019-02-15T22:58:12.317Z,4.30
2019-02-15T23:01:02.045Z,3.43
2019-02-15T23:03:30.772Z,4.40
2019-02-15T23:05:59.698Z,3.70
2019-02-15T23:08:28.721Z,4.17
2019-02-15T23:10:57.329Z,4.00
2019-02-15T23:13:25.906Z,3.83
2019-02-15T23:15:54.524Z,4.10
2019-02-15T23:18:23.227Z,3.93
2019-02-15T23:20:51.941Z,3.30
2019-02-15T23:23:20.783Z,3.90
2019-02-15T23:25:49.356Z,3.60
2019-02-15T23:28:18.066Z,3.80
2019-02-15T23:30:46.994Z,4.07
2019-02-15T23:33:15.566Z,3.07
2019-02-15T23:35:44.202Z,3.83
2019-02-15T23:38:13.273Z,4.93
2019-02-15T23:40:42.078Z,3.60
2019-02-15T23:43:10.792Z,4.07
2019-02-15T23:45:39.365Z,3.47
2019-02-15T23:48:08.001Z,3.67
2019-02-15T23:50:36.562Z,3.20
2019-02-15T23:53:05.403Z,3.67
2019-02-15T23:55:33.998Z,3.50
2019-02-15T23:58:02.583Z,3.20
